Time;durP1;ratioP1;P1;durP2;ratioP2;P2;SDS_P1;SDS_P2;PMS_P1;PMS_P2;Temp;Humidity;BMP_temperature;BMP_pressure;BME280_temperature;BME280_humidity;BME280_pressure;Samples;Min_cycle;Max_cycle;Signal;HPM_P1;HPM_P2
2022/05/03 00:00:16;;;;;;;2.37;0.80;;;10.00;89.40;;;;;;5022767;28;20188;-77
2022/05/03 00:03:00;;;;;;;0.57;0.57;;;9.90;90.20;;;;;;5023148;28;20184;-78
2022/05/03 00:05:41;;;;;;;0.80;0.80;;;9.90;90.10;;;;;;5017779;28;20192;-77
2022/05/03 00:08:13;;;;;;;0.97;0.77;;;9.80;89.70;;;;;;5012901;28;20252;-77
2022/05/03 00:11:00;;;;;;;0.73;0.73;;;9.80;90.40;;;;;;5011318;28;20246;-78
2022/05/03 00:13:38;;;;;;;0.90;0.90;;;9.80;90.10;;;;;;5024500;28;20219;-78
2022/05/03 00:16:06;;;;;;;0.87;0.87;;;9.80;89.60;;;;;;5023818;28;20215;-78
2022/05/03 00:18:33;;;;;;;2.03;1.20;;;9.80;90.50;;;;;;5025840;28;20258;-78
2022/05/03 00:20:59;;;;;;;0.77;0.77;;;9.80;90.60;;;;;;5025071;28;20291;-78
2022/05/03 00:23:25;;;;;;;1.00;0.60;;;9.80;90.10;;;;;;5026467;28;20312;-78
2022/05/03 00:25:52;;;;;;;1.70;0.60;;;9.90;90.10;;;;;;5031086;28;20196;-78
2022/05/03 00:28:21;;;;;;;0.70;0.70;;;9.70;90.30;;;;;;5061358;28;20173;-78
2022/05/03 00:30:48;;;;;;;0.80;0.80;;;9.80;90.60;;;;;;5024122;28;20185;-78
2022/05/03 00:33:15;;;;;;;0.70;0.70;;;9.80;91.10;;;;;;5028629;28;20219;-78
2022/05/03 00:35:43;;;;;;;0.53;0.53;;;9.80;91.20;;;;;;5025342;28;20184;-78
2022/05/03 00:38:09;;;;;;;1.13;0.80;;;9.80;91.90;;;;;;5022581;28;20252;-78
2022/05/03 00:40:39;;;;;;;1.00;1.00;;;9.80;92.00;;;;;;5019371;28;20280;-78
2022/05/03 00:43:14;;;;;;;1.23;0.90;;;9.70;91.20;;;;;;5019376;28;20909;-78
2022/05/03 00:45:48;;;;;;;0.90;0.90;;;9.70;91.50;;;;;;5020496;28;20184;-78
2022/05/03 00:48:24;;;;;;;1.03;0.87;;;9.70;91.80;;;;;;5025926;28;20196;-79
2022/05/03 00:51:10;;;;;;;1.27;1.20;;;9.70;91.50;;;;;;5019270;28;20185;-78
2022/05/03 00:54:24;;;;;;;0.57;0.57;;;9.70;91.90;;;;;;5013989;28;20294;-79
2022/05/03 00:57:20;;;;;;;0.77;0.77;;;9.70;91.50;;;;;;4992794;28;20292;-78
2022/05/03 01:00:05;;;;;;;0.70;0.70;;;9.70;91.40;;;;;;4994889;28;20223;-77
2022/05/03 01:03:02;;;;;;;2.43;0.80;;;9.70;91.60;;;;;;4977384;28;20276;-78
2022/05/03 01:05:40;;;;;;;0.63;0.63;;;9.60;90.60;;;;;;4955053;28;20214;-77
2022/05/03 01:08:07;;;;;;;0.80;0.80;;;9.50;91.30;;;;;;4950234;28;20191;-77
2022/05/03 01:11:11;;;;;;;0.77;0.77;;;9.60;91.70;;;;;;4959003;28;20194;-78
2022/05/03 01:13:46;;;;;;;0.80;0.80;;;9.70;91.30;;;;;;4952765;28;20230;-78
2022/05/03 01:16:38;;;;;;;0.60;0.60;;;9.70;92.10;;;;;;4957967;28;20218;-77
2022/05/03 01:19:47;;;;;;;0.50;0.50;;;9.70;91.70;;;;;;4948969;28;20202;-77
2022/05/03 01:22:24;;;;;;;0.50;0.50;;;9.70;91.00;;;;;;4949356;28;20254;-78
2022/05/03 01:25:08;;;;;;;0.90;0.90;;;9.60;91.60;;;;;;4957707;28;20202;-78
2022/05/03 01:27:40;;;;;;;0.73;0.73;;;9.60;91.30;;;;;;4950181;28;20231;-76
2022/05/03 01:30:09;;;;;;;0.57;0.57;;;9.60;91.70;;;;;;4948735;28;20195;-77
2022/05/03 01:32:38;;;;;;;0.57;0.57;;;9.50;91.50;;;;;;4971754;28;20182;-75
2022/05/03 01:35:06;;;;;;;0.40;0.40;;;9.60;91.40;;;;;;4973830;28;20199;-76
2022/05/03 01:37:51;;;;;;;1.10;1.00;;;9.60;91.50;;;;;;4973997;28;20340;-76
2022/05/03 01:40:22;;;;;;;0.50;0.50;;;9.60;91.80;;;;;;4970697;28;20248;-76
2022/05/03 01:43:35;;;;;;;0.67;0.67;;;9.60;91.70;;;;;;5007827;28;20222;-76
2022/05/03 01:46:18;;;;;;;0.70;0.70;;;9.60;91.80;;;;;;4975340;28;20241;-75
2022/05/03 01:51:42;;;;;;;0.70;0.70;;;9.30;91.20;;;;;;4971148;28;20626;-77
2022/05/03 01:54:38;;;;;;;1.70;0.70;;;9.40;91.00;;;;;;4973149;28;20213;-75
2022/05/03 01:57:15;;;;;;;0.80;0.80;;;9.40;90.40;;;;;;4987516;28;20198;-75
2022/05/03 02:00:08;;;;;;;3.40;0.60;;;9.40;89.80;;;;;;4968776;28;20196;-76
2022/05/03 02:02:53;;;;;;;0.70;0.70;;;9.30;89.50;;;;;;4965111;28;20280;-75
2022/05/03 02:05:37;;;;;;;0.53;0.53;;;9.30;90.10;;;;;;4965730;28;20209;-75
2022/05/03 02:08:04;;;;;;;0.90;0.70;;;9.30;90.80;;;;;;4970003;28;20559;-76
2022/05/03 02:10:56;;;;;;;0.70;0.70;;;9.20;91.50;;;;;;4972450;28;20189;-75
2022/05/03 02:16:52;;;;;;;0.80;0.80;;;9.20;91.30;;;;;;4903520;29;20210;-76
2022/05/03 02:19:56;;;;;;;0.77;0.77;;;9.10;92.00;;;;;;4934064;29;20192;-76
2022/05/03 02:22:36;;;;;;;1.13;0.70;;;9.10;92.00;;;;;;4930007;29;20195;-76
2022/05/03 02:25:17;;;;;;;1.00;0.90;;;9.10;92.00;;;;;;4936350;29;21012;-75
2022/05/03 02:27:51;;;;;;;0.60;0.60;;;9.20;92.20;;;;;;4932299;29;20194;-76
2022/05/03 02:30:19;;;;;;;0.97;0.87;;;9.20;92.00;;;;;;4928573;29;21115;-78
2022/05/03 02:33:03;;;;;;;0.70;0.70;;;9.10;91.90;;;;;;4932924;29;20192;-76
2022/05/03 02:35:34;;;;;;;0.73;0.73;;;9.10;92.40;;;;;;4929679;29;20195;-77
2022/05/03 02:38:05;;;;;;;2.33;1.20;;;9.10;92.10;;;;;;4930572;29;20195;-78
2022/05/03 02:40:32;;;;;;;1.20;1.17;;;9.10;92.60;;;;;;4936467;28;20205;-76
2022/05/03 02:42:58;;;;;;;0.57;0.57;;;9.10;93.10;;;;;;4930653;29;20202;-76
2022/05/03 02:45:24;;;;;;;0.80;0.80;;;9.00;92.70;;;;;;4932342;29;20228;-76
2022/05/03 02:48:02;;;;;;;0.77;0.77;;;9.10;93.30;;;;;;4928598;29;20321;-76
2022/05/03 02:50:42;;;;;;;0.70;0.70;;;9.10;92.80;;;;;;4977022;28;20299;-75
2022/05/03 02:53:08;;;;;;;1.23;0.80;;;9.10;93.00;;;;;;5014921;28;20207;-76
2022/05/03 02:55:54;;;;;;;0.77;0.77;;;9.20;93.00;;;;;;5012061;28;20250;-77
2022/05/03 02:58:46;;;;;;;0.90;0.90;;;9.20;93.30;;;;;;5015558;28;21011;-76
2022/05/03 03:01:48;;;;;;;1.10;1.10;;;9.20;93.10;;;;;;5010451;28;20787;-77
2022/05/03 03:04:42;;;;;;;0.67;0.67;;;9.30;93.10;;;;;;5012129;28;20574;-75
2022/05/03 03:07:12;;;;;;;0.53;0.53;;;9.30;92.90;;;;;;5007279;28;20267;-76
2022/05/03 03:09:41;;;;;;;0.80;0.80;;;9.20;93.50;;;;;;5014169;28;20200;-77
2022/05/03 03:12:27;;;;;;;1.20;1.20;;;9.20;93.40;;;;;;5036892;28;20258;-77
2022/05/03 03:15:07;;;;;;;0.80;0.80;;;9.20;93.50;;;;;;4962614;28;20229;-77
2022/05/03 03:17:40;;;;;;;0.80;0.80;;;9.00;92.50;;;;;;4962175;28;20282;-75
2022/05/03 03:20:11;;;;;;;0.87;0.83;;;9.00;92.30;;;;;;4962392;28;20194;-76
2022/05/03 03:22:45;;;;;;;1.00;1.00;;;8.90;91.70;;;;;;4962360;28;20217;-75
2022/05/03 03:25:18;;;;;;;1.70;0.97;;;8.90;91.60;;;;;;4962019;28;20186;-76
2022/05/03 03:27:46;;;;;;;3.90;1.10;;;8.90;92.10;;;;;;4958383;28;20192;-76
2022/05/03 03:30:13;;;;;;;1.27;1.20;;;9.00;92.30;;;;;;4960367;28;20261;-76
2022/05/03 03:32:47;;;;;;;0.87;0.87;;;9.10;93.40;;;;;;4961371;28;20199;-78
2022/05/03 03:35:14;;;;;;;0.70;0.70;;;9.10;93.10;;;;;;4962288;28;20206;-75
2022/05/03 03:37:45;;;;;;;0.73;0.73;;;9.10;93.00;;;;;;4961714;28;20213;-75
2022/05/03 03:40:13;;;;;;;0.90;0.90;;;9.10;92.80;;;;;;4961128;28;20208;-76
2022/05/03 03:42:40;;;;;;;1.03;1.03;;;9.00;92.50;;;;;;4961396;28;20202;-76
2022/05/03 03:45:07;;;;;;;0.70;0.70;;;9.00;92.50;;;;;;4960718;28;20209;-76
2022/05/03 03:47:34;;;;;;;2.33;1.00;;;9.00;92.50;;;;;;4961912;28;20189;-76
2022/05/03 03:50:00;;;;;;;1.13;1.13;;;9.00;92.50;;;;;;4962800;28;20245;-77
2022/05/03 03:52:26;;;;;;;1.00;1.00;;;9.10;92.80;;;;;;4994114;28;20193;-77
2022/05/03 03:54:54;;;;;;;1.40;1.13;;;9.00;92.80;;;;;;5017381;28;20656;-77
2022/05/03 03:57:21;;;;;;;1.10;0.90;;;9.10;93.30;;;;;;5013856;28;20238;-77
2022/05/03 03:59:47;;;;;;;0.70;0.70;;;9.10;92.60;;;;;;5009967;28;20189;-76
2022/05/03 04:02:14;;;;;;;1.00;1.00;;;9.20;92.90;;;;;;5012675;28;20582;-76
2022/05/03 04:04:42;;;;;;;1.30;1.27;;;9.20;93.00;;;;;;5011006;28;20188;-76
2022/05/03 04:07:08;;;;;;;1.27;0.90;;;9.20;93.20;;;;;;5006465;28;20196;-76
2022/05/03 04:09:34;;;;;;;0.80;0.80;;;9.30;92.80;;;;;;5015725;28;20184;-76
2022/05/03 04:12:02;;;;;;;1.67;1.30;;;9.40;92.80;;;;;;5014471;28;20271;-76
2022/05/03 04:14:29;;;;;;;1.00;1.00;;;9.40;93.20;;;;;;5020084;28;20222;-76
2022/05/03 04:16:54;;;;;;;0.90;0.90;;;9.50;93.20;;;;;;5012979;28;20601;-75
2022/05/03 04:19:23;;;;;;;0.83;0.83;;;9.50;93.20;;;;;;5010922;28;20180;-75
2022/05/03 04:21:50;;;;;;;1.00;1.00;;;9.50;93.20;;;;;;5018202;28;20422;-76
2022/05/03 04:24:17;;;;;;;0.97;0.97;;;9.40;93.30;;;;;;5012414;28;20604;-77
2022/05/03 04:26:43;;;;;;;1.33;1.23;;;9.40;93.40;;;;;;5044596;28;20693;-76
2022/05/03 04:29:09;;;;;;;1.17;1.17;;;9.40;93.50;;;;;;5014200;28;20189;-77
2022/05/03 04:31:36;;;;;;;0.93;0.93;;;9.50;93.30;;;;;;5016213;28;20177;-76
2022/05/03 04:34:03;;;;;;;1.17;1.17;;;9.50;93.20;;;;;;5009602;28;20220;-77
2022/05/03 04:36:33;;;;;;;0.77;0.77;;;9.50;93.50;;;;;;5009128;28;20624;-77
2022/05/03 04:39:00;;;;;;;1.20;1.10;;;9.40;93.10;;;;;;5009874;28;20211;-77
2022/05/03 04:41:26;;;;;;;0.93;0.93;;;9.40;92.50;;;;;;5014960;28;20195;-77
2022/05/03 04:43:52;;;;;;;0.90;0.90;;;9.40;92.40;;;;;;5010402;28;20812;-76
2022/05/03 04:46:18;;;;;;;0.80;0.80;;;9.40;91.70;;;;;;5012430;28;20215;-77
2022/05/03 04:48:44;;;;;;;0.90;0.90;;;9.40;91.90;;;;;;5015629;28;20207;-77
2022/05/03 04:51:35;;;;;;;1.10;1.10;;;9.40;91.60;;;;;;5019085;28;20850;-76
2022/05/03 04:54:01;;;;;;;0.70;0.70;;;9.40;91.70;;;;;;5010213;28;20277;-76
2022/05/03 04:56:27;;;;;;;0.73;0.73;;;9.40;91.60;;;;;;5011864;28;20208;-75
2022/05/03 04:58:56;;;;;;;1.67;1.10;;;9.40;91.10;;;;;;5014325;28;20557;-76
2022/05/03 05:01:23;;;;;;;0.67;0.63;;;9.40;91.10;;;;;;5014657;28;20217;-75
2022/05/03 05:03:49;;;;;;;0.70;0.70;;;9.40;91.30;;;;;;5015634;28;20197;-75
2022/05/03 05:06:15;;;;;;;0.77;0.77;;;9.50;91.30;;;;;;5015027;28;20283;-77
2022/05/03 05:08:43;;;;;;;0.60;0.60;;;9.60;91.50;;;;;;5010290;28;20185;-77
2022/05/03 05:11:10;;;;;;;0.70;0.70;;;9.60;91.40;;;;;;5012827;28;20836;-78
2022/05/03 05:13:37;;;;;;;0.83;0.83;;;9.60;90.80;;;;;;5009684;28;20313;-78
2022/05/03 05:16:06;;;;;;;0.73;0.73;;;9.60;90.00;;;;;;5012106;28;20187;-75
2022/05/03 05:18:32;;;;;;;1.13;1.00;;;9.70;90.50;;;;;;5015605;28;20833;-77
2022/05/03 05:20:58;;;;;;;0.53;0.53;;;9.70;90.10;;;;;;5013039;28;20184;-77
2022/05/03 05:23:24;;;;;;;1.30;1.10;;;9.80;90.40;;;;;;5012089;28;20316;-79
2022/05/03 05:25:51;;;;;;;0.80;0.80;;;9.70;89.90;;;;;;5013241;28;20189;-78
2022/05/03 05:28:19;;;;;;;3.83;1.37;;;9.80;90.00;;;;;;5014960;28;20279;-77
2022/05/03 05:30:45;;;;;;;2.83;1.00;;;9.90;90.50;;;;;;5015171;28;20530;-77
2022/05/03 05:33:11;;;;;;;0.85;0.85;;;9.90;89.90;;;;;;5010674;28;20282;-76
2022/05/03 05:35:38;;;;;;;0.90;0.90;;;;;;;;;;5015991;28;20213;-76
2022/05/03 05:38:04;;;;;;;0.70;0.70;;;9.90;88.50;;;;;;5017663;28;20296;-76
2022/05/03 05:40:30;;;;;;;0.80;0.80;;;9.90;87.80;;;;;;5012759;28;20264;-76
2022/05/03 05:42:55;;;;;;;0.60;0.60;;;9.90;87.80;;;;;;5017184;28;20280;-76
2022/05/03 05:45:21;;;;;;;0.77;0.77;;;10.00;88.30;;;;;;5013078;28;20242;-79
2022/05/03 05:47:47;;;;;;;0.80;0.80;;;10.10;88.20;;;;;;5009005;28;20181;-77
2022/05/03 05:50:13;;;;;;;0.87;0.70;;;10.20;88.20;;;;;;5011768;28;20193;-77
2022/05/03 05:55:24;;;;;;;0.70;0.70;;;10.20;86.50;;;;;;5017649;28;20196;-78
2022/05/03 05:57:50;;;;;;;1.50;0.70;;;10.30;87.30;;;;;;5018192;28;20226;-77
2022/05/03 06:00:16;;;;;;;0.50;0.50;;;10.30;86.20;;;;;;5016698;28;20176;-77
2022/05/03 06:02:42;;;;;;;0.70;0.70;;;10.50;86.40;;;;;;5012935;28;20165;-78
2022/05/03 06:05:08;;;;;;;0.75;0.68;;;10.50;86.40;;;;;;5015610;28;20189;-77
2022/05/03 06:07:34;;;;;;;0.70;0.70;;;;;;;;;;5013946;28;20327;-78
2022/05/03 06:10:00;;;;;;;0.55;0.55;;;10.50;84.30;;;;;;5016515;28;20176;-77
2022/05/03 06:12:25;;;;;;;0.60;0.60;;;10.50;84.00;;;;;;5011985;28;20199;-78
2022/05/03 06:14:52;;;;;;;0.68;0.68;;;10.60;84.70;;;;;;5008539;28;20212;-77
2022/05/03 06:17:18;;;;;;;0.50;0.50;;;10.60;82.40;;;;;;5018631;28;20203;-77
2022/05/03 06:19:44;;;;;;;0.80;0.80;;;10.70;84.20;;;;;;5009233;28;20181;-77
2022/05/03 06:22:10;;;;;;;0.68;0.68;;;10.70;83.50;;;;;;5019653;28;20185;-79
2022/05/03 06:24:38;;;;;;;0.88;0.85;;;10.60;82.70;;;;;;5015056;28;20293;-78
2022/05/03 06:27:04;;;;;;;0.65;0.65;;;10.60;82.90;;;;;;5044117;28;20200;-78
2022/05/03 06:29:32;;;;;;;0.70;0.70;;;10.70;83.40;;;;;;5015943;28;20180;-77
2022/05/03 06:31:59;;;;;;;2.00;0.65;;;10.70;83.70;;;;;;5012592;28;20189;-78
2022/05/03 06:34:25;;;;;;;0.70;0.70;;;10.80;82.40;;;;;;5016374;28;20216;-77
2022/05/03 06:36:51;;;;;;;0.88;0.88;;;10.80;82.20;;;;;;5017878;28;20189;-77
2022/05/03 06:39:17;;;;;;;0.50;0.50;;;10.90;82.20;;;;;;5010921;28;20204;-77
2022/05/03 06:41:43;;;;;;;0.88;0.65;;;10.90;81.70;;;;;;5011201;28;20180;-77
2022/05/03 06:44:09;;;;;;;1.25;1.15;;;11.00;81.60;;;;;;5012227;28;20740;-77
2022/05/03 06:46:34;;;;;;;0.57;0.57;;;11.10;82.30;;;;;;5009688;28;20192;-77
2022/05/03 06:49:00;;;;;;;0.47;0.47;;;11.10;82.20;;;;;;5013155;28;20188;-77
2022/05/03 06:51:26;;;;;;;1.00;1.00;;;11.20;81.40;;;;;;5011343;28;20573;-77
2022/05/03 06:53:52;;;;;;;0.70;0.70;;;11.30;81.10;;;;;;5015697;28;20814;-77
2022/05/03 06:56:18;;;;;;;0.55;0.55;;;11.30;81.00;;;;;;5017078;28;20295;-77
2022/05/03 06:58:44;;;;;;;0.70;0.70;;;11.30;81.20;;;;;;5015358;28;20693;-78
2022/05/03 07:01:13;;;;;;;0.60;0.60;;;11.30;81.00;;;;;;5016103;28;20195;-78
2022/05/03 07:03:39;;;;;;;0.47;0.47;;;11.30;81.10;;;;;;5007961;28;20654;-79
2022/05/03 07:06:05;;;;;;;0.65;0.65;;;11.40;81.00;;;;;;5013149;28;20181;-78
2022/05/03 07:08:32;;;;;;;0.73;0.73;;;11.40;81.40;;;;;;5017272;28;20200;-78
2022/05/03 07:10:58;;;;;;;0.68;0.68;;;11.50;82.00;;;;;;5014840;28;20191;-78
2022/05/03 07:13:24;;;;;;;0.73;0.60;;;11.60;82.40;;;;;;5016270;28;20216;-78
2022/05/03 07:15:55;;;;;;;0.70;0.70;;;11.60;82.10;;;;;;5017414;28;20602;-78
2022/05/03 07:23:51;;;;;;;2.50;0.80;;;11.90;82.60;;;;;;5014651;28;20704;-78
2022/05/03 07:26:18;;;;;;;0.77;0.77;;;12.00;82.90;;;;;;5020141;28;20194;-78
2022/05/03 07:28:44;;;;;;;1.65;1.10;;;12.10;81.60;;;;;;5014724;28;20287;-78
2022/05/03 07:31:10;;;;;;;3.03;1.10;;;12.10;82.20;;;;;;5015884;28;20183;-78
2022/05/03 07:33:35;;;;;;;3.50;0.90;;;12.20;81.80;;;;;;5012132;28;20212;-78
2022/05/03 07:36:05;;;;;;;0.93;0.93;;;12.10;80.80;;;;;;5011882;28;20782;-79
2022/05/03 07:38:30;;;;;;;0.80;0.80;;;11.90;79.20;;;;;;5012831;28;20187;-77
2022/05/03 07:40:56;;;;;;;0.88;0.88;;;11.90;79.20;;;;;;5012538;28;20181;-77
2022/05/03 07:43:23;;;;;;;0.80;0.80;;;11.80;79.60;;;;;;5017049;28;20185;-77
2022/05/03 07:45:49;;;;;;;1.00;0.80;;;11.70;80.60;;;;;;5018153;28;20173;-78
2022/05/03 07:48:14;;;;;;;1.67;0.98;;;11.70;80.70;;;;;;5015412;28;20291;-78
2022/05/03 07:50:40;;;;;;;1.58;1.00;;;;;;;;;;5016798;28;20179;-77
2022/05/03 07:53:06;;;;;;;1.00;1.00;;;11.70;81.30;;;;;;5014728;28;20209;-78
2022/05/03 07:55:32;;;;;;;0.82;0.82;;;11.70;81.80;;;;;;5008816;28;20217;-77
2022/05/03 07:57:58;;;;;;;1.00;1.00;;;11.70;82.10;;;;;;5016351;28;20229;-77
2022/05/03 08:00:24;;;;;;;1.15;1.15;;;11.60;82.30;;;;;;5012144;28;20228;-78
2022/05/03 08:02:49;;;;;;;0.82;0.82;;;11.70;82.90;;;;;;5017051;28;20638;-77
2022/05/03 08:05:16;;;;;;;1.00;1.00;;;11.70;82.60;;;;;;5009418;28;20238;-78
2022/05/03 08:07:42;;;;;;;2.08;1.05;;;11.70;82.40;;;;;;5015069;28;20177;-77
2022/05/03 08:10:08;;;;;;;1.80;1.02;;;11.70;82.10;;;;;;5011074;28;20187;-78
2022/05/03 08:12:35;;;;;;;1.20;0.93;;;11.70;82.50;;;;;;5015771;28;20180;-77
2022/05/03 08:15:02;;;;;;;0.55;0.55;;;11.70;82.70;;;;;;5013744;28;20208;-78
2022/05/03 08:17:28;;;;;;;1.02;1.02;;;11.80;83.00;;;;;;5014543;28;20195;-78
2022/05/03 08:19:54;;;;;;;0.60;0.60;;;11.90;82.70;;;;;;5013988;28;21018;-78
2022/05/03 08:22:21;;;;;;;0.52;0.52;;;12.00;83.10;;;;;;5015796;28;20180;-78
2022/05/03 08:24:46;;;;;;;0.55;0.55;;;11.90;82.60;;;;;;5018010;28;20259;-78
2022/05/03 08:27:12;;;;;;;0.75;0.75;;;12.00;81.90;;;;;;5011668;28;20267;-79
2022/05/03 08:29:38;;;;;;;0.65;0.65;;;12.00;81.50;;;;;;5010606;28;20185;-78
2022/05/03 08:32:05;;;;;;;0.57;0.57;;;12.10;81.70;;;;;;5012079;28;20185;-78
2022/05/03 08:34:31;;;;;;;0.60;0.60;;;12.20;81.40;;;;;;5017066;28;20235;-79
2022/05/03 08:42:30;;;;;;;0.60;0.60;;;12.20;81.20;;;;;;5016429;28;20179;-77
2022/05/03 08:44:56;;;;;;;0.47;0.47;;;12.20;81.00;;;;;;5016888;28;20193;-78
2022/05/03 08:47:25;;;;;;;0.65;0.65;;;12.40;81.90;;;;;;5016578;28;20262;-78
2022/05/03 08:49:57;;;;;;;1.10;0.77;;;12.50;81.70;;;;;;5015948;28;20180;-77
2022/05/03 08:52:24;;;;;;;0.60;0.60;;;12.50;80.30;;;;;;5017483;28;20646;-78
2022/05/03 08:54:49;;;;;;;0.60;0.52;;;12.50;79.60;;;;;;5020715;28;20208;-77
2022/05/03 08:57:18;;;;;;;0.75;0.52;;;12.60;80.20;;;;;;5020109;28;20184;-78
2022/05/03 08:59:45;;;;;;;0.60;0.60;;;12.60;79.80;;;;;;5019704;28;20177;-78
2022/05/03 09:02:11;;;;;;;0.80;0.80;;;12.70;80.00;;;;;;5014596;28;20177;-78
2022/05/03 09:04:37;;;;;;;0.60;0.60;;;12.70;79.50;;;;;;5010263;28;20189;-78
2022/05/03 09:07:23;;;;;;;0.60;0.60;;;12.80;80.10;;;;;;5016583;28;20244;-78
2022/05/03 09:09:50;;;;;;;0.50;0.50;;;13.00;79.50;;;;;;5005682;28;20238;-77
2022/05/03 09:12:28;;;;;;;0.60;0.60;;;13.10;79.60;;;;;;5013339;28;20184;-78
2022/05/03 09:14:59;;;;;;;0.50;0.50;;;13.20;78.30;;;;;;5015921;28;20219;-78
2022/05/03 09:17:41;;;;;;;0.40;0.40;;;13.40;79.10;;;;;;5034420;28;20287;-77
2022/05/03 09:25:52;;;;;;;0.63;0.63;;;13.40;76.70;;;;;;5015218;28;20222;-77
2022/05/03 09:28:22;;;;;;;0.70;0.70;;;13.40;78.20;;;;;;5012727;28;20192;-78
2022/05/03 09:30:50;;;;;;;0.50;0.50;;;13.60;78.70;;;;;;5010171;28;20416;-78
2022/05/03 09:33:22;;;;;;;0.68;0.68;;;13.70;78.60;;;;;;5006730;28;20208;-76
2022/05/03 09:35:49;;;;;;;0.65;0.65;;;13.90;76.30;;;;;;5017238;28;20182;-77
2022/05/03 09:38:15;;;;;;;0.47;0.47;;;14.00;74.70;;;;;;5036307;28;20243;-78
2022/05/03 09:40:43;;;;;;;1.10;0.68;;;14.00;75.40;;;;;;5009317;28;20181;-77
2022/05/03 09:43:10;;;;;;;1.65;0.50;;;14.10;75.60;;;;;;5008916;28;20467;-77
2022/05/03 09:45:36;;;;;;;0.73;0.73;;;14.20;75.80;;;;;;5004939;28;20262;-77
2022/05/03 09:48:03;;;;;;;0.93;0.85;;;14.20;75.50;;;;;;5012343;28;20680;-78
2022/05/03 09:50:43;;;;;;;0.75;0.60;;;14.30;75.40;;;;;;5009225;28;20647;-77
2022/05/03 09:53:18;;;;;;;1.10;0.70;;;14.40;75.20;;;;;;5012862;28;20204;-77
2022/05/03 09:55:47;;;;;;;0.80;0.80;;;14.60;76.20;;;;;;5011785;28;20283;-77
2022/05/03 09:58:15;;;;;;;1.08;0.60;;;15.00;76.60;;;;;;5013137;28;20185;-77
2022/05/03 10:00:43;;;;;;;2.88;0.60;;;15.40;75.60;;;;;;5015268;28;20176;-78
2022/05/03 10:03:10;;;;;;;0.90;0.90;;;15.70;74.70;;;;;;5016744;28;20408;-77
2022/05/03 10:05:38;;;;;;;0.93;0.80;;;16.00;72.20;;;;;;5009803;28;20271;-77
2022/05/03 10:08:05;;;;;;;0.60;0.60;;;16.10;72.10;;;;;;5006682;28;20661;-78
2022/05/03 10:10:31;;;;;;;0.88;0.88;;;16.20;71.80;;;;;;5013041;28;20172;-78
2022/05/03 10:12:59;;;;;;;0.70;0.70;;;16.10;71.10;;;;;;5022025;28;20627;-78
2022/05/03 10:21:25;;;;;;;0.98;0.82;;;15.70;70.00;;;;;;5014168;28;20182;-78
2022/05/03 10:24:01;;;;;;;3.63;0.82;;;15.40;70.90;;;;;;5017392;28;20176;-77
2022/05/03 10:26:54;;;;;;;0.60;0.60;;;15.40;70.50;;;;;;5008104;28;20179;-78
2022/05/03 10:29:25;;;;;;;0.60;0.60;;;15.10;70.60;;;;;;5010004;28;20672;-78
2022/05/03 10:32:02;;;;;;;2.28;0.77;;;14.80;70.60;;;;;;5011238;28;20196;-78
2022/05/03 10:34:54;;;;;;;4.38;1.55;;;14.50;70.90;;;;;;5010391;28;20264;-77
2022/05/03 10:37:26;;;;;;;1.10;0.65;;;14.30;72.40;;;;;;5008722;28;20218;-78
2022/05/03 10:39:56;;;;;;;7.22;1.52;;;13.90;72.70;;;;;;5011595;28;20203;-77
2022/05/03 10:42:24;;;;;;;1.20;0.50;;;13.80;73.40;;;;;;5041564;28;20201;-77
2022/05/03 10:44:53;;;;;;;0.77;0.60;;;13.70;73.00;;;;;;5015770;28;20172;-77
2022/05/03 10:47:21;;;;;;;0.73;0.73;;;13.50;73.00;;;;;;5013261;28;20690;-77
2022/05/03 10:50:12;;;;;;;0.60;0.60;;;13.30;72.60;;;;;;5008635;28;20196;-77
2022/05/03 10:52:58;;;;;;;1.40;0.70;;;13.20;73.10;;;;;;5005918;28;20195;-76
2022/05/03 10:55:29;;;;;;;0.50;0.50;;;13.20;73.70;;;;;;4940917;29;20191;-76
2022/05/03 10:58:20;;;;;;;3.10;0.60;;;13.40;73.20;;;;;;4935275;29;20246;-76
2022/05/03 11:01:21;;;;;;;0.30;0.30;;;13.50;72.80;;;;;;4941649;29;20673;-76
2022/05/03 11:03:51;;;;;;;0.60;0.60;;;13.50;72.50;;;;;;4918261;29;20268;-77
2022/05/03 11:06:19;;;;;;;1.75;0.50;;;13.60;73.80;;;;;;4937677;28;20191;-77
2022/05/03 11:08:58;;;;;;;1.17;0.75;;;13.70;73.60;;;;;;4940799;29;20582;-77
2022/05/03 11:11:47;;;;;;;0.70;0.70;;;13.80;72.90;;;;;;4936151;29;20193;-77
2022/05/03 11:14:16;;;;;;;0.50;0.50;;;14.00;73.20;;;;;;4927378;29;20237;-77
2022/05/03 11:16:45;;;;;;;0.60;0.60;;;14.20;72.40;;;;;;4934995;29;20251;-77
2022/05/03 11:19:19;;;;;;;0.60;0.60;;;14.20;72.10;;;;;;4935570;29;20201;-77
2022/05/03 11:21:46;;;;;;;0.50;0.50;;;14.10;71.10;;;;;;4933928;29;20271;-77
2022/05/03 11:24:19;;;;;;;0.50;0.50;;;14.30;70.80;;;;;;4934784;29;20277;-78
2022/05/03 11:26:46;;;;;;;0.45;0.45;;;14.40;70.60;;;;;;4938080;29;20203;-77
2022/05/03 11:29:13;;;;;;;0.63;0.63;;;14.70;69.40;;;;;;4933303;29;20195;-78
2022/05/03 11:31:39;;;;;;;0.52;0.52;;;15.20;70.70;;;;;;4943419;28;20202;-78
2022/05/03 11:34:06;;;;;;;0.50;0.50;;;15.80;69.00;;;;;;5004741;28;20216;-78
2022/05/03 11:36:33;;;;;;;0.60;0.60;;;16.30;71.10;;;;;;5006679;28;20177;-78
2022/05/03 11:39:02;;;;;;;0.55;0.50;;;17.00;69.90;;;;;;5006463;28;20767;-78
2022/05/03 11:41:28;;;;;;;0.70;0.70;;;17.70;70.00;;;;;;5006433;28;20181;-78
2022/05/03 11:43:55;;;;;;;5.57;0.90;;;18.10;67.60;;;;;;5004071;28;20642;-77
2022/05/03 11:46:22;;;;;;;0.63;0.60;;;18.30;65.40;;;;;;5006771;28;20195;-79
2022/05/03 11:48:54;;;;;;;0.77;0.77;;;18.40;65.90;;;;;;5003841;28;20267;-78
2022/05/03 11:57:16;;;;;;;1.10;0.50;;;17.60;64.90;;;;;;5010117;28;20191;-78
2022/05/03 11:59:45;;;;;;;0.50;0.50;;;17.30;66.10;;;;;;5022165;28;20223;-78
2022/05/03 12:02:36;;;;;;;1.02;1.02;;;17.30;64.40;;;;;;5007973;28;20177;-78
2022/05/03 12:05:06;;;;;;;0.50;0.50;;;17.30;66.40;;;;;;5004226;28;20185;-78
2022/05/03 12:07:47;;;;;;;0.75;0.70;;;17.50;66.20;;;;;;5004397;28;20177;-77
2022/05/03 12:10:27;;;;;;;0.60;0.60;;;17.40;65.40;;;;;;5006964;28;20188;-77
2022/05/03 12:13:13;;;;;;;0.30;0.30;;;17.30;66.20;;;;;;5003376;28;20572;-77
2022/05/03 12:15:41;;;;;;;2.17;0.40;;;17.20;65.40;;;;;;5036865;28;20177;-78
2022/05/03 12:18:18;;;;;;;0.30;0.30;;;17.00;65.90;;;;;;5043586;28;20200;-77
2022/05/03 12:20:47;;;;;;;0.60;0.60;;;16.60;65.10;;;;;;5006548;28;20684;-77
2022/05/03 12:23:20;;;;;;;0.60;0.60;;;15.90;65.50;;;;;;5015622;28;20188;-77
2022/05/03 12:25:52;;;;;;;0.47;0.47;;;15.60;66.90;;;;;;5011543;28;20667;-77
2022/05/03 12:28:18;;;;;;;0.40;0.40;;;15.60;67.30;;;;;;5006674;28;20288;-78
2022/05/03 12:30:44;;;;;;;0.50;0.50;;;15.40;67.70;;;;;;5011419;28;20659;-77
2022/05/03 12:33:15;;;;;;;0.47;0.40;;;15.20;67.40;;;;;;5013429;28;20183;-77
2022/05/03 12:35:42;;;;;;;0.60;0.60;;;15.10;67.70;;;;;;5004285;28;20303;-78
2022/05/03 12:38:14;;;;;;;0.50;0.50;;;15.00;68.20;;;;;;5007417;28;20181;-77
2022/05/03 12:40:54;;;;;;;0.35;0.35;;;15.00;68.00;;;;;;5009894;28;20635;-78
2022/05/03 12:43:26;;;;;;;2.33;0.70;;;14.80;68.30;;;;;;5011113;28;21243;-78
2022/05/03 12:46:07;;;;;;;0.50;0.50;;;14.50;68.90;;;;;;5007104;28;20276;-77
2022/05/03 12:48:36;;;;;;;0.40;0.40;;;14.30;69.60;;;;;;5003003;28;20188;-78
2022/05/03 12:51:03;;;;;;;0.50;0.50;;;14.30;70.30;;;;;;5007870;28;20177;-77
2022/05/03 12:53:31;;;;;;;0.80;0.50;;;14.30;70.80;;;;;;5004468;28;20213;-77
2022/05/03 12:58:21;;;;;;;0.40;0.40;;;14.30;70.70;;;;;;5004328;28;20235;-77
2022/05/03 12:58:45;;;;;;;0.55;0.55;;;14.20;70.80;;;;;;5003962;28;20271;-78
2022/05/03 13:01:13;;;;;;;0.63;0.63;;;14.20;70.70;;;;;;5008151;28;20216;-79
2022/05/03 13:03:39;;;;;;;0.50;0.50;;;14.20;71.10;;;;;;5005733;28;20631;-79
2022/05/03 13:06:05;;;;;;;0.55;0.55;;;14.20;71.40;;;;;;5007995;28;20682;-79
2022/05/03 13:08:31;;;;;;;0.57;0.57;;;14.10;70.50;;;;;;5011247;28;20291;-79
2022/05/03 13:11:00;;;;;;;1.13;0.50;;;14.00;71.70;;;;;;5011339;28;20222;-79
2022/05/03 13:13:26;;;;;;;0.88;0.80;;;14.00;71.70;;;;;;5012437;28;20216;-79
2022/05/03 13:15:52;;;;;;;0.63;0.63;;;14.00;70.90;;;;;;5008243;28;20207;-78
2022/05/03 13:18:17;;;;;;;2.08;0.50;;;13.90;70.30;;;;;;5009323;28;20212;-78
2022/05/03 13:20:46;;;;;;;0.40;0.40;;;13.90;70.30;;;;;;5011084;28;20239;-79
2022/05/03 13:23:12;;;;;;;0.40;0.40;;;13.90;70.20;;;;;;5007221;28;20203;-79
2022/05/03 13:25:38;;;;;;;0.40;0.40;;;13.80;69.60;;;;;;5011326;28;20188;-79
2022/05/03 13:28:06;;;;;;;1.33;0.60;;;13.80;70.00;;;;;;5015023;28;20181;-79
2022/05/03 13:30:32;;;;;;;0.50;0.50;;;13.70;70.50;;;;;;5015244;28;20260;-79
2022/05/03 13:32:58;;;;;;;2.10;0.57;;;13.70;70.80;;;;;;5011295;28;20304;-79
2022/05/03 13:40:55;;;;;;;0.47;0.47;;;14.00;71.60;;;;;;5012099;28;20195;-79
2022/05/03 13:43:22;;;;;;;0.30;0.30;;;14.10;71.10;;;;;;5016525;28;20655;-78
2022/05/03 13:45:49;;;;;;;0.68;0.68;;;14.10;71.20;;;;;;5049447;28;20185;-79
2022/05/03 13:48:15;;;;;;;0.50;0.50;;;14.20;71.20;;;;;;5010828;28;20188;-79
2022/05/03 13:50:41;;;;;;;0.60;0.60;;;14.10;71.20;;;;;;5012082;28;20695;-78
2022/05/03 13:53:09;;;;;;;0.63;0.63;;;14.00;71.40;;;;;;5007411;28;20177;-79
2022/05/03 13:55:38;;;;;;;1.15;0.63;;;13.80;72.10;;;;;;5014793;28;20186;-79